sensor_id;sensor_type;location;lat;lon;timestamp;pressure;altitude;pressure_sealevel;temperature;humidity
35151;BME280;55720;51.972;4.624;2023-01-27T00:01:45;101901.50;;;5.52;100.00
35151;BME280;55720;51.972;4.624;2023-01-27T00:04:11;101900.13;;;5.54;100.00
35151;BME280;55720;51.972;4.624;2023-01-27T00:06:36;101897.69;;;5.53;100.00
35151;BME280;55720;51.972;4.624;2023-01-27T00:09:02;101892.25;;;5.53;100.00
35151;BME280;55720;51.972;4.624;2023-01-27T00:11:27;101892.22;;;5.58;100.00
35151;BME280;55720;51.972;4.624;2023-01-27T00:14:11;101894.38;;;5.61;100.00
35151;BME280;55720;51.972;4.624;2023-01-27T00:16:36;101888.94;;;5.66;100.00
35151;BME280;55720;51.972;4.624;2023-01-27T00:19:02;101888.94;;;5.66;100.00
35151;BME280;55720;51.972;4.624;2023-01-27T00:21:27;101895.47;;;5.65;100.00
35151;BME280;55720;51.972;4.624;2023-01-27T00:24:12;101902.56;;;5.61;100.00
35151;BME280;55720;51.972;4.624;2023-01-27T00:26:55;101899.31;;;5.64;100.00
35151;BME280;55720;51.972;4.624;2023-01-27T00:29:21;101896.03;;;5.62;100.00
35151;BME280;55720;51.972;4.624;2023-01-27T00:31:46;101888.41;;;5.64;100.00
35151;BME280;55720;51.972;4.624;2023-01-27T00:34:30;101894.41;;;5.56;100.00
35151;BME280;55720;51.972;4.624;2023-01-27T00:36:55;101898.78;;;5.57;100.00
35151;BME280;55720;51.972;4.624;2023-01-27T00:39:21;101898.50;;;5.58;100.00
35151;BME280;55720;51.972;4.624;2023-01-27T00:41:46;101892.78;;;5.60;100.00
35151;BME280;55720;51.972;4.624;2023-01-27T00:44:12;101905.28;;;5.61;100.00
35151;BME280;55720;51.972;4.624;2023-01-27T00:46:37;101908.84;;;5.61;100.00
35151;BME280;55720;51.972;4.624;2023-01-27T00:49:02;101909.13;;;5.60;100.00
35151;BME280;55720;51.972;4.624;2023-01-27T00:51:28;101904.22;;;5.57;100.00
35151;BME280;55720;51.972;4.624;2023-01-27T00:53:53;101903.13;;;5.58;100.00
35151;BME280;55720;51.972;4.624;2023-01-27T00:56:19;101907.47;;;5.59;100.00
35151;BME280;55720;51.972;4.624;2023-01-27T00:58:44;101912.91;;;5.54;100.00
35151;BME280;55720;51.972;4.624;2023-01-27T01:01:13;101915.91;;;5.57;100.00
35151;BME280;55720;51.972;4.624;2023-01-27T01:03:38;101906.94;;;5.46;100.00
35151;BME280;55720;51.972;4.624;2023-01-27T01:06:09;101926.81;;;5.47;100.00
35151;BME280;55720;51.972;4.624;2023-01-27T01:08:36;101921.38;;;5.37;100.00
35151;BME280;55720;51.972;4.624;2023-01-27T01:11:02;101927.09;;;5.40;100.00
35151;BME280;55720;51.972;4.624;2023-01-27T01:13:28;101926.00;;;5.31;100.00
35151;BME280;55720;51.972;4.624;2023-01-27T01:15:54;101918.13;;;5.35;100.00
35151;BME280;55720;51.972;4.624;2023-01-27T01:18:19;101919.19;;;5.34;100.00
35151;BME280;55720;51.972;4.624;2023-01-27T01:20:46;101917.00;;;5.31;100.00
35151;BME280;55720;51.972;4.624;2023-01-27T01:23:12;101926.81;;;5.27;100.00
35151;BME280;55720;51.972;4.624;2023-01-27T01:25:38;101923.78;;;5.28;100.00
35151;BME280;55720;51.972;4.624;2023-01-27T01:28:05;101921.63;;;5.30;100.00
35151;BME280;55720;51.972;4.624;2023-01-27T01:30:33;101927.34;;;5.29;100.00
35151;BME280;55720;51.972;4.624;2023-01-27T01:32:58;101924.91;;;5.27;100.00
35151;BME280;55720;51.972;4.624;2023-01-27T01:35:24;101928.16;;;5.19;100.00
35151;BME280;55720;51.972;4.624;2023-01-27T01:37:50;101934.16;;;5.16;100.00
35151;BME280;55720;51.972;4.624;2023-01-27T01:40:16;101933.59;;;5.19;100.00
35151;BME280;55720;51.972;4.624;2023-01-27T01:43:00;101951.28;;;5.12;100.00
35151;BME280;55720;51.972;4.624;2023-01-27T01:45:52;101945.56;;;5.08;100.00
35151;BME280;55720;51.972;4.624;2023-01-27T01:48:31;101956.41;;;5.03;100.00
35151;BME280;55720;51.972;4.624;2023-01-27T01:51:02;101959.97;;;5.04;100.00
35151;BME280;55720;51.972;4.624;2023-01-27T01:53:37;101958.63;;;5.06;100.00
35151;BME280;55720;51.972;4.624;2023-01-27T01:56:13;101966.25;;;5.09;100.00
35151;BME280;55720;51.972;4.624;2023-01-27T01:58:42;101962.16;;;5.02;100.00
35151;BME280;55720;51.972;4.624;2023-01-27T02:01:08;101971.91;;;4.92;100.00
35151;BME280;55720;51.972;4.624;2023-01-27T02:03:36;101970.78;;;4.88;100.00
35151;BME280;55720;51.972;4.624;2023-01-27T02:06:04;101967.28;;;4.88;100.00
35151;BME280;55720;51.972;4.624;2023-01-27T02:08:36;101966.19;;;4.89;100.00
35151;BME280;55720;51.972;4.624;2023-01-27T02:11:03;101961.81;;;4.83;100.00
35151;BME280;55720;51.972;4.624;2023-01-27T02:13:28;101978.63;;;4.75;100.00
35151;BME280;55720;51.972;4.624;2023-01-27T02:15:54;101978.34;;;4.71;100.00
35151;BME280;55720;51.972;4.624;2023-01-27T02:18:40;101982.47;;;4.79;100.00
35151;BME280;55720;51.972;4.624;2023-01-27T02:21:06;101987.34;;;4.72;100.00
35151;BME280;55720;51.972;4.624;2023-01-27T02:26:24;101982.47;;;4.74;100.00
35151;BME280;55720;51.972;4.624;2023-01-27T02:28:57;101981.38;;;4.75;100.00
35151;BME280;55720;51.972;4.624;2023-01-27T02:31:23;101986.81;;;4.75;100.00
35151;BME280;55720;51.972;4.624;2023-01-27T02:33:49;101984.09;;;4.75;100.00
35151;BME280;55720;51.972;4.624;2023-01-27T02:36:16;101983.25;;;4.74;100.00
35151;BME280;55720;51.972;4.624;2023-01-27T02:38:52;101980.28;;;4.76;100.00
35151;BME280;55720;51.972;4.624;2023-01-27T02:41:23;101990.34;;;4.75;100.00
35151;BME280;55720;51.972;4.624;2023-01-27T02:43:51;101984.09;;;4.70;100.00
35151;BME280;55720;51.972;4.624;2023-01-27T02:46:17;101987.59;;;4.70;100.00
35151;BME280;55720;51.972;4.624;2023-01-27T02:48:43;101982.69;;;4.67;100.00
35151;BME280;55720;51.972;4.624;2023-01-27T02:51:08;101981.81;;;4.57;100.00
35151;BME280;55720;51.972;4.624;2023-01-27T02:53:34;101976.38;;;4.57;100.00
35151;BME280;55720;51.972;4.624;2023-01-27T02:55:59;101986.19;;;4.58;100.00
35151;BME280;55720;51.972;4.624;2023-01-27T02:58:25;101981.28;;;4.60;100.00
35151;BME280;55720;51.972;4.624;2023-01-27T03:00:50;101985.06;;;4.54;100.00
35151;BME280;55720;51.972;4.624;2023-01-27T03:03:16;101989.97;;;4.52;100.00
35151;BME280;55720;51.972;4.624;2023-01-27T03:05:41;101987.50;;;4.50;100.00
35151;BME280;55720;51.972;4.624;2023-01-27T03:08:06;101998.41;;;4.55;100.00
35151;BME280;55720;51.972;4.624;2023-01-27T03:10:32;101993.75;;;4.51;100.00
35151;BME280;55720;51.972;4.624;2023-01-27T03:12:57;101990.75;;;4.47;100.00
35151;BME280;55720;51.972;4.624;2023-01-27T03:15:23;101984.72;;;4.40;100.00
35151;BME280;55720;51.972;4.624;2023-01-27T03:18:08;101995.31;;;4.41;100.00
35151;BME280;55720;51.972;4.624;2023-01-27T03:20:38;101999.16;;;4.40;100.00
35151;BME280;55720;51.972;4.624;2023-01-27T03:23:04;101995.03;;;4.38;100.00
35151;BME280;55720;51.972;4.624;2023-01-27T03:25:29;101996.97;;;4.37;100.00
35151;BME280;55720;51.972;4.624;2023-01-27T03:27:55;102007.25;;;4.35;100.00
35151;BME280;55720;51.972;4.624;2023-01-27T03:30:21;102008.91;;;4.36;100.00
35151;BME280;55720;51.972;4.624;2023-01-27T03:32:46;102018.44;;;4.34;100.00
35151;BME280;55720;51.972;4.624;2023-01-27T03:35:13;102012.69;;;4.35;100.00
35151;BME280;55720;51.972;4.624;2023-01-27T03:37:40;102005.91;;;4.33;100.00
35151;BME280;55720;51.972;4.624;2023-01-27T03:40:25;102015.38;;;4.25;100.00
35151;BME280;55720;51.972;4.624;2023-01-27T03:43:09;102017.56;;;4.28;100.00
35151;BME280;55720;51.972;4.624;2023-01-27T03:45:53;102016.50;;;4.34;100.00
35151;BME280;55720;51.972;4.624;2023-01-27T03:48:37;102011.03;;;4.29;100.00
35151;BME280;55720;51.972;4.624;2023-01-27T03:51:04;102022.75;;;4.30;100.00
35151;BME280;55720;51.972;4.624;2023-01-27T03:53:31;102024.59;;;4.24;100.00
35151;BME280;55720;51.972;4.624;2023-01-27T03:55:56;102018.59;;;4.22;100.00
35151;BME280;55720;51.972;4.624;2023-01-27T03:58:30;102020.81;;;4.25;100.00
35151;BME280;55720;51.972;4.624;2023-01-27T04:00:58;102029.47;;;4.22;100.00
35151;BME280;55720;51.972;4.624;2023-01-27T04:03:27;102037.28;;;4.14;100.00
35151;BME280;55720;51.972;4.624;2023-01-27T04:06:15;102028.59;;;4.17;100.00
35151;BME280;55720;51.972;4.624;2023-01-27T04:08:59;102040.84;;;4.14;100.00
35151;BME280;55720;51.972;4.624;2023-01-27T04:11:25;102040.84;;;4.14;100.00
35151;BME280;55720;51.972;4.624;2023-01-27T04:14:10;102041.66;;;4.15;100.00
35151;BME280;55720;51.972;4.624;2023-01-27T04:16:36;102052.75;;;4.08;100.00
35151;BME280;55720;51.972;4.624;2023-01-27T04:19:03;102061.97;;;4.07;100.00
35151;BME280;55720;51.972;4.624;2023-01-27T04:21:29;102060.38;;;4.11;100.00
35151;BME280;55720;51.972;4.624;2023-01-27T04:23:55;102060.31;;;4.06;100.00
35151;BME280;55720;51.972;4.624;2023-01-27T04:26:21;102064.63;;;3.97;100.00
35151;BME280;55720;51.972;4.624;2023-01-27T04:28:47;102076.03;;;3.99;100.00
35151;BME280;55720;51.972;4.624;2023-01-27T04:31:13;102063.78;;;3.96;100.00
35151;BME280;55720;51.972;4.624;2023-01-27T04:33:40;102064.63;;;3.97;100.00
35151;BME280;55720;51.972;4.624;2023-01-27T04:36:05;102070.59;;;3.99;100.00
35151;BME280;55720;51.972;4.624;2023-01-27T04:38:31;102075.94;;;3.89;100.00
35151;BME280;55720;51.972;4.624;2023-01-27T04:40:57;102068.66;;;3.94;100.00
35151;BME280;55720;51.972;4.624;2023-01-27T04:43:22;102076.19;;;3.87;100.00
35151;BME280;55720;51.972;4.624;2023-01-27T04:45:48;102071.84;;;3.86;100.00
35151;BME280;55720;51.972;4.624;2023-01-27T04:48:13;102074.81;;;3.85;100.00
35151;BME280;55720;51.972;4.624;2023-01-27T04:50:38;102072.94;;;3.85;100.00
35151;BME280;55720;51.972;4.624;2023-01-27T04:53:04;102078.28;;;3.75;100.00
35151;BME280;55720;51.972;4.624;2023-01-27T04:55:29;102077.22;;;3.81;100.00
35151;BME280;55720;51.972;4.624;2023-01-27T04:57:54;102087.78;;;3.78;100.00
35151;BME280;55720;51.972;4.624;2023-01-27T05:00:20;102083.72;;;3.80;100.00
35151;BME280;55720;51.972;4.624;2023-01-27T05:02:45;102078.28;;;3.80;100.00
35151;BME280;55720;51.972;4.624;2023-01-27T05:05:11;102076.09;;;3.77;100.00
35151;BME280;55720;51.972;4.624;2023-01-27T05:07:37;102093.28;;;3.83;100.00
35151;BME280;55720;51.972;4.624;2023-01-27T05:10:03;102093.28;;;3.83;100.00
35151;BME280;55720;51.972;4.624;2023-01-27T05:12:28;102109.31;;;3.84;100.00
35151;BME280;55720;51.972;4.624;2023-01-27T05:14:53;102112.91;;;3.90;100.00
35151;BME280;55720;51.972;4.624;2023-01-27T05:17:19;102122.66;;;3.86;100.00
35151;BME280;55720;51.972;4.624;2023-01-27T05:19:44;102111.25;;;3.89;100.00
35151;BME280;55720;51.972;4.624;2023-01-27T05:22:10;102116.19;;;3.92;100.00
35151;BME280;55720;51.972;4.624;2023-01-27T05:24:36;102129.53;;;3.93;100.00
35151;BME280;55720;51.972;4.624;2023-01-27T05:27:03;102138.19;;;3.90;100.00
35151;BME280;55720;51.972;4.624;2023-01-27T05:29:28;102139.25;;;3.89;100.00
35151;BME280;55720;51.972;4.624;2023-01-27T05:31:54;102148.56;;;3.98;100.00
35151;BME280;55720;51.972;4.624;2023-01-27T05:34:19;102144.94;;;3.88;100.00
35151;BME280;55720;51.972;4.624;2023-01-27T05:36:44;102161.00;;;3.89;100.00
35151;BME280;55720;51.972;4.624;2023-01-27T05:39:10;102168.44;;;3.99;100.00
35151;BME280;55720;51.972;4.624;2023-01-27T05:41:35;102178.16;;;3.95;100.00
35151;BME280;55720;51.972;4.624;2023-01-27T05:44:01;102186.38;;;4.00;100.00
35151;BME280;55720;51.972;4.624;2023-01-27T05:46:29;102178.53;;;4.04;100.00
35151;BME280;55720;51.972;4.624;2023-01-27T05:48:58;102193.50;;;4.06;100.00
35151;BME280;55720;51.972;4.624;2023-01-27T05:51:25;102198.38;;;4.04;100.00
35151;BME280;55720;51.972;4.624;2023-01-27T05:53:52;102201.78;;;3.94;100.00
35151;BME280;55720;51.972;4.624;2023-01-27T05:56:39;102207.06;;;4.01;100.00
35151;BME280;55720;51.972;4.624;2023-01-27T05:59:05;102211.34;;;3.97;100.00
35151;BME280;55720;51.972;4.624;2023-01-27T06:01:32;102215.75;;;4.03;100.00
35151;BME280;55720;51.972;4.624;2023-01-27T06:03:59;102221.13;;;3.98;100.00
35151;BME280;55720;51.972;4.624;2023-01-27T06:06:26;102212.97;;;3.98;100.00
35151;BME280;55720;51.972;4.624;2023-01-27T06:08:52;102228.47;;;3.97;100.00
35151;BME280;55720;51.972;4.624;2023-01-27T06:11:19;102230.38;;;3.97;100.00
35151;BME280;55720;51.972;4.624;2023-01-27T06:13:45;102241.28;;;4.02;100.00
35151;BME280;55720;51.972;4.624;2023-01-27T06:16:12;102242.63;;;4.00;100.00
35151;BME280;55720;51.972;4.624;2023-01-27T06:18:38;102247.31;;;4.04;100.00
35151;BME280;55720;51.972;4.624;2023-01-27T06:21:07;102243.53;;;4.05;100.00
35151;BME280;55720;51.972;4.624;2023-01-27T06:23:33;102253.50;;;4.00;100.00
35151;BME280;55720;51.972;4.624;2023-01-27T06:26:10;102258.41;;;4.03;100.00
35151;BME280;55720;51.972;4.624;2023-01-27T06:28:37;102261.66;;;4.00;100.00
35151;BME280;55720;51.972;4.624;2023-01-27T06:31:23;102262.53;;;4.05;100.00
35151;BME280;55720;51.972;4.624;2023-01-27T06:33:49;102265.56;;;4.09;100.00
35151;BME280;55720;51.972;4.624;2023-01-27T06:36:17;102281.81;;;4.04;100.00
35151;BME280;55720;51.972;4.624;2023-01-27T06:38:43;102280.34;;;3.96;100.00
35151;BME280;55720;51.972;4.624;2023-01-27T06:41:09;102288.81;;;4.00;100.00
35151;BME280;55720;51.972;4.624;2023-01-27T06:43:35;102290.16;;;3.97;100.00
35151;BME280;55720;51.972;4.624;2023-01-27T06:46:00;102302.41;;;4.00;100.00
35151;BME280;55720;51.972;4.624;2023-01-27T06:48:26;102301.91;;;4.03;100.00
35151;BME280;55720;51.972;4.624;2023-01-27T06:50:53;102307.09;;;4.04;100.00
35151;BME280;55720;51.972;4.624;2023-01-27T06:53:19;102316.81;;;4.00;100.00
35151;BME280;55720;51.972;4.624;2023-01-27T06:55:44;102317.84;;;3.94;100.00
35151;BME280;55720;51.972;4.624;2023-01-27T06:58:11;102320.56;;;3.94;100.00
35151;BME280;55720;51.972;4.624;2023-01-27T07:00:37;102329.78;;;3.93;100.00
35151;BME280;55720;51.972;4.624;2023-01-27T07:03:03;102333.50;;;3.87;100.00
35151;BME280;55720;51.972;4.624;2023-01-27T07:05:30;102349.81;;;3.87;100.00
35151;BME280;55720;51.972;4.624;2023-01-27T07:07:55;102351.19;;;3.89;100.00
35151;BME280;55720;51.972;4.624;2023-01-27T07:10:21;102364.78;;;3.89;100.00
35151;BME280;55720;51.972;4.624;2023-01-27T07:12:46;102374.31;;;3.92;100.00
35151;BME280;55720;51.972;4.624;2023-01-27T07:15:12;102377.31;;;3.90;100.00
35151;BME280;55720;51.972;4.624;2023-01-27T07:17:37;102380.44;;;3.82;100.00
35151;BME280;55720;51.972;4.624;2023-01-27T07:20:04;102379.09;;;3.85;100.00
35151;BME280;55720;51.972;4.624;2023-01-27T07:22:30;102376.91;;;3.82;100.00
35151;BME280;55720;51.972;4.624;2023-01-27T07:24:55;102378.22;;;3.79;100.00
35151;BME280;55720;51.972;4.624;2023-01-27T07:27:22;102388.09;;;3.85;100.00
35151;BME280;55720;51.972;4.624;2023-01-27T07:29:47;102385.59;;;3.84;100.00
35151;BME280;55720;51.972;4.624;2023-01-27T07:32:13;102387.53;;;3.83;100.00
35151;BME280;55720;51.972;4.624;2023-01-27T07:34:38;102386.94;;;3.81;100.00
35151;BME280;55720;51.972;4.624;2023-01-27T07:37:03;102397.72;;;3.76;100.00
35151;BME280;55720;51.972;4.624;2023-01-27T07:39:30;102401.72;;;3.69;100.00
35151;BME280;55720;51.972;4.624;2023-01-27T07:41:55;102404.66;;;3.67;100.00
35151;BME280;55720;51.972;4.624;2023-01-27T07:44:21;102408.09;;;3.63;100.00
35151;BME280;55720;51.972;4.624;2023-01-27T07:46:47;102411.31;;;3.60;100.00
35151;BME280;55720;51.972;4.624;2023-01-27T07:49:12;102419.47;;;3.60;100.00
35151;BME280;55720;51.972;4.624;2023-01-27T07:51:37;102428.13;;;3.57;100.00
35151;BME280;55720;51.972;4.624;2023-01-27T07:54:03;102424.47;;;3.51;100.00
35151;BME280;55720;51.972;4.624;2023-01-27T07:56:29;102430.75;;;3.52;100.00
35151;BME280;55720;51.972;4.624;2023-01-27T07:58:54;102445.16;;;3.52;100.00
35151;BME280;55720;51.972;4.624;2023-01-27T08:01:20;102440.78;;;3.51;100.00
35151;BME280;55720;51.972;4.624;2023-01-27T08:03:45;102452.47;;;3.52;100.00
35151;BME280;55720;51.972;4.624;2023-01-27T08:06:11;102451.81;;;3.61;100.00
35151;BME280;55720;51.972;4.624;2023-01-27T08:08:37;102457.59;;;3.65;100.00
35151;BME280;55720;51.972;4.624;2023-01-27T08:11:05;102460.63;;;3.68;100.00
35151;BME280;55720;51.972;4.624;2023-01-27T08:13:33;102458.97;;;3.67;100.00
35151;BME280;55720;51.972;4.624;2023-01-27T08:15:59;102464.31;;;3.62;100.00
35151;BME280;55720;51.972;4.624;2023-01-27T08:18:27;102461.78;;;3.72;100.00
35151;BME280;55720;51.972;4.624;2023-01-27T08:20:53;102468.53;;;3.70;100.00
35151;BME280;55720;51.972;4.624;2023-01-27T08:23:20;102467.63;;;3.81;100.00
35151;BME280;55720;51.972;4.624;2023-01-27T08:25:57;102476.50;;;3.76;100.00
35151;BME280;55720;51.972;4.624;2023-01-27T08:28:23;102466.31;;;3.83;100.00
35151;BME280;55720;51.972;4.624;2023-01-27T08:30:50;102470.94;;;3.83;100.00
35151;BME280;55720;51.972;4.624;2023-01-27T08:33:20;102468.69;;;3.80;100.00
35151;BME280;55720;51.972;4.624;2023-01-27T08:35:46;102461.13;;;3.82;100.00
35151;BME280;55720;51.972;4.624;2023-01-27T08:38:12;102456.56;;;3.87;100.00
35151;BME280;55720;51.972;4.624;2023-01-27T08:40:39;102468.59;;;3.91;100.00
35151;BME280;55720;51.972;4.624;2023-01-27T08:43:05;102466.16;;;3.90;100.00
35151;BME280;55720;51.972;4.624;2023-01-27T08:45:32;102468.59;;;3.91;100.00
35151;BME280;55720;51.972;4.624;2023-01-27T08:47:58;102472.72;;;3.94;100.00
35151;BME280;55720;51.972;4.624;2023-01-27T08:50:23;102468.41;;;3.98;100.00
35151;BME280;55720;51.972;4.624;2023-01-27T08:52:48;102475.50;;;3.99;100.00
35151;BME280;55720;51.972;4.624;2023-01-27T08:55:14;102485.81;;;3.97;100.00
35151;BME280;55720;51.972;4.624;2023-01-27T08:57:39;102475.66;;;4.09;100.00
35151;BME280;55720;51.972;4.624;2023-01-27T09:00:06;102484.53;;;4.21;100.00
35151;BME280;55720;51.972;4.624;2023-01-27T09:02:32;102494.44;;;4.11;100.00
35151;BME280;55720;51.972;4.624;2023-01-27T09:04:57;102502.19;;;4.19;100.00
35151;BME280;55720;51.972;4.624;2023-01-27T09:07:23;102504.97;;;4.24;100.00
35151;BME280;55720;51.972;4.624;2023-01-27T09:09:48;102519.47;;;4.29;100.00
35151;BME280;55720;51.972;4.624;2023-01-27T09:12:14;102531.31;;;4.40;100.00
35151;BME280;55720;51.972;4.624;2023-01-27T09:14:40;102544.72;;;4.46;100.00
35151;BME280;55720;51.972;4.624;2023-01-27T09:17:05;102542.53;;;4.43;100.00
35151;BME280;55720;51.972;4.624;2023-01-27T09:19:31;102551.19;;;4.40;100.00
35151;BME280;55720;51.972;4.624;2023-01-27T09:21:56;102562.66;;;4.26;100.00
35151;BME280;55720;51.972;4.624;2023-01-27T09:24:22;102564.94;;;4.17;100.00
35151;BME280;55720;51.972;4.624;2023-01-27T09:26:47;102573.78;;;4.08;100.00
35151;BME280;55720;51.972;4.624;2023-01-27T09:29:13;102575.09;;;4.05;100.00
35151;BME280;55720;51.972;4.624;2023-01-27T09:31:38;102567.84;;;4.11;100.00
35151;BME280;55720;51.972;4.624;2023-01-27T09:34:03;102564.44;;;4.20;100.00
35151;BME280;55720;51.972;4.624;2023-01-27T09:36:29;102562.66;;;4.26;100.00
35151;BME280;55720;51.972;4.624;2023-01-27T09:39:04;102554.50;;;4.26;100.00
35151;BME280;55720;51.972;4.624;2023-01-27T09:52:30;102524.91;;;4.13;100.00
35151;BME280;55720;51.972;4.624;2023-01-27T09:55:12;102526.84;;;4.12;100.00
35151;BME280;55720;51.972;4.624;2023-01-27T10:03:39;102525.56;;;4.20;100.00
35151;BME280;55720;51.972;4.624;2023-01-27T10:06:29;102528.38;;;4.25;100.00
35151;BME280;55720;51.972;4.624;2023-01-27T10:09:18;102528.00;;;4.38;100.00
35151;BME280;55720;51.972;4.624;2023-01-27T10:17:59;102547.91;;;4.60;100.00
35151;BME280;55720;51.972;4.624;2023-01-27T10:20:43;102552.84;;;4.63;100.00
35151;BME280;55720;51.972;4.624;2023-01-27T10:23:15;102562.97;;;4.68;100.00
35151;BME280;55720;51.972;4.624;2023-01-27T10:28:28;102560.84;;;4.70;100.00
35151;BME280;55720;51.972;4.624;2023-01-27T10:30:59;102563.84;;;4.90;100.00
35151;BME280;55720;51.972;4.624;2023-01-27T10:33:35;102562.00;;;4.95;100.00
35151;BME280;55720;51.972;4.624;2023-01-27T10:36:16;102567.25;;;5.02;100.00
35151;BME280;55720;51.972;4.624;2023-01-27T10:50:27;102579.03;;;5.29;100.00
35151;BME280;55720;51.972;4.624;2023-01-27T10:58:10;102569.47;;;5.54;100.00
35151;BME280;55720;51.972;4.624;2023-01-27T11:00:42;102580.13;;;5.55;100.00
35151;BME280;55720;51.972;4.624;2023-01-27T11:03:24;102582.03;;;5.55;100.00
35151;BME280;55720;51.972;4.624;2023-01-27T11:06:02;102570.56;;;5.79;100.00
35151;BME280;55720;51.972;4.624;2023-01-27T11:08:33;102569.28;;;5.87;100.00
35151;BME280;55720;51.972;4.624;2023-01-27T11:11:03;102572.22;;;5.80;100.00
35151;BME280;55720;51.972;4.624;2023-01-27T11:13:48;102573.03;;;5.81;100.00
35151;BME280;55720;51.972;4.624;2023-01-27T11:16:17;102578.47;;;5.81;100.00
35151;BME280;55720;51.972;4.624;2023-01-27T11:18:44;102589.50;;;5.64;100.00
35151;BME280;55720;51.972;4.624;2023-01-27T11:21:25;102585.81;;;5.54;100.00
35151;BME280;55720;51.972;4.624;2023-01-27T11:23:55;102581.00;;;5.61;100.00
35151;BME280;55720;51.972;4.624;2023-01-27T11:26:43;102590.00;;;5.61;100.00
35151;BME280;55720;51.972;4.624;2023-01-27T11:32:35;102582.66;;;5.62;100.00
35151;BME280;55720;51.972;4.624;2023-01-27T11:35:09;102587.69;;;5.48;100.00
35151;BME280;55720;51.972;4.624;2023-01-27T11:37:40;102593.69;;;5.50;100.00
35151;BME280;55720;51.972;4.624;2023-01-27T11:42:41;102579.44;;;5.43;100.00
35151;BME280;55720;51.972;4.624;2023-01-27T11:45:12;102575.13;;;5.47;100.00
35151;BME280;55720;51.972;4.624;2023-01-27T11:47:39;102559.47;;;5.59;100.00
35151;BME280;55720;51.972;4.624;2023-01-27T11:50:06;102561.88;;;5.56;100.00
35151;BME280;55720;51.972;4.624;2023-01-27T11:52:32;102562.66;;;5.51;100.00
35151;BME280;55720;51.972;4.624;2023-01-27T11:55:15;102562.84;;;5.44;100.00
35151;BME280;55720;51.972;4.624;2023-01-27T11:57:44;102560.44;;;5.48;100.00
35151;BME280;55720;51.972;4.624;2023-01-27T12:05:46;102541.94;;;5.23;100.00
35151;BME280;55720;51.972;4.624;2023-01-27T12:08:34;102534.78;;;5.17;100.00
35151;BME280;55720;51.972;4.624;2023-01-27T12:11:16;102532.50;;;5.09;100.00
35151;BME280;55720;51.972;4.624;2023-01-27T12:13:50;102518.06;;;5.09;100.00
35151;BME280;55720;51.972;4.624;2023-01-27T12:16:16;102509.59;;;5.05;100.00
35151;BME280;55720;51.972;4.624;2023-01-27T12:18:53;102511.25;;;5.06;100.00
35151;BME280;55720;51.972;4.624;2023-01-27T12:21:21;102514.72;;;5.02;100.00
35151;BME280;55720;51.972;4.624;2023-01-27T12:23:57;102501.09;;;5.02;100.00
35151;BME280;55720;51.972;4.624;2023-01-27T12:26:34;102492.88;;;4.96;100.00
35151;BME280;55720;51.972;4.624;2023-01-27T12:29:23;102491.88;;;5.03;100.00
35151;BME280;55720;51.972;4.624;2023-01-27T12:31:53;102486.97;;;5.05;100.00
35151;BME280;55720;51.972;4.624;2023-01-27T12:34:27;102481.63;;;5.15;100.00
35151;BME280;55720;51.972;4.624;2023-01-27T12:36:54;102471.19;;;5.07;100.00
35151;BME280;55720;51.972;4.624;2023-01-27T12:42:49;102447.53;;;5.07;100.00
35151;BME280;55720;51.972;4.624;2023-01-27T12:45:31;102439.34;;;5.07;100.00
35151;BME280;55720;51.972;4.624;2023-01-27T12:50:33;102434.31;;;4.94;100.00
35151;BME280;55720;51.972;4.624;2023-01-27T12:53:13;102429.44;;;4.96;100.00
35151;BME280;55720;51.972;4.624;2023-01-27T12:56:25;102412.66;;;5.04;100.00
35151;BME280;55720;51.972;4.624;2023-01-27T12:58:44;102411.28;;;5.02;100.00
35151;BME280;55720;51.972;4.624;2023-01-27T13:03:48;102417.84;;;5.06;100.00
35151;BME280;55720;51.972;4.624;2023-01-27T13:06:17;102419.16;;;5.03;100.00
35151;BME280;55720;51.972;4.624;2023-01-27T13:08:44;102416.66;;;4.96;100.00
35151;BME280;55720;51.972;4.624;2023-01-27T13:11:11;102411.00;;;5.03;100.00
35151;BME280;55720;51.972;4.624;2023-01-27T13:13:47;102406.03;;;4.95;100.00
35151;BME280;55720;51.972;4.624;2023-01-27T13:16:25;102410.81;;;4.83;100.00
35151;BME280;55720;51.972;4.624;2023-01-27T13:18:56;102419.69;;;4.73;100.00
35151;BME280;55720;51.972;4.624;2023-01-27T13:21:32;102420.34;;;4.85;100.00
35151;BME280;55720;51.972;4.624;2023-01-27T13:24:02;102411.00;;;5.03;100.00
35151;BME280;55720;51.972;4.624;2023-01-27T13:26:30;102427.84;;;5.00;100.00
35151;BME280;55720;51.972;4.624;2023-01-27T13:34:21;102449.00;;;4.66;100.00
35151;BME280;55720;51.972;4.624;2023-01-27T13:37:15;102445.66;;;4.86;100.00
35151;BME280;55720;51.972;4.624;2023-01-27T13:45:25;102465.75;;;4.80;100.00
35151;BME280;55720;51.972;4.624;2023-01-27T13:48:16;102471.06;;;4.91;100.00
35151;BME280;55720;51.972;4.624;2023-01-27T13:50:48;102461.31;;;4.95;100.00
35151;BME280;55720;51.972;4.624;2023-01-27T13:53:17;102467.19;;;4.87;100.00
35151;BME280;55720;51.972;4.624;2023-01-27T13:55:51;102466.75;;;4.95;100.00
35151;BME280;55720;51.972;4.624;2023-01-27T14:01:04;102475.59;;;4.86;100.00
35151;BME280;55720;51.972;4.624;2023-01-27T14:03:39;102462.06;;;4.91;100.00
35151;BME280;55720;51.972;4.624;2023-01-27T14:12:12;102441.38;;;4.68;100.00
35151;BME280;55720;51.972;4.624;2023-01-27T14:14:51;102441.06;;;4.65;100.00
35151;BME280;55720;51.972;4.624;2023-01-27T14:20:06;102434.75;;;4.59;100.00
35151;BME280;55720;51.972;4.624;2023-01-27T14:28:18;102433.47;;;4.45;100.00
35151;BME280;55720;51.972;4.624;2023-01-27T14:30:47;102427.22;;;4.44;100.00
35151;BME280;55720;51.972;4.624;2023-01-27T14:36:18;102437.59;;;4.47;100.00
35151;BME280;55720;51.972;4.624;2023-01-27T14:42:12;102436.69;;;4.42;100.00